Tracer — PHAC — position and weather

sailwx.info

Track history (hours):
 
Tides and Currents Weather Stations Pressure Air Temp Water Temp Dewpoint Dewpoint Depression Visibility Wind Speed Wind Dir Waves Ship Positions

Tracer

Last reported at 2015-May-27 16:33 UTC. Time now 2015-May-27 21:50 UTC.
Position N 35°55' E 014°33'.

Length 101 m; beam 20 m.

Type: Cargo ship. MMSI: 245949000.

Date/timePositionNaut miles runAvg speedWind from/ knotsBaromVisibWave heightAir tempDewpointWater temp
2015-May-27 16:33N 35°55' E 014°33'9 9.0
2015-May-27 15:32N 36°04' E 014°38'8 8.5
2015-May-27 14:33N 36°10' E 014°31'1010.3
2015-May-27 13:33N 36°09' E 014°18'1010.2
2015-May-27 12:33N 36°12' E 014°07'1010.4
2015-May-27 11:33N 36°17' E 013°55'1110.7
2015-May-27 10:33N 36°22' E 013°43'  
2015-May-24 07:33N 36°01' W 005°14'9 8.5
2015-May-24 06:33N 36°07' W 005°22'0 0.1
2015-May-24 03:32N 36°07' W 005°21'0 0.1
2015-May-24 01:32N 36°07' W 005°21'0 0.0
2015-May-24 00:32N 36°07' W 005°21'0 0.1
2015-May-23 23:14N 36°07' W 005°21'7 1.9
2015-May-23 19:33N 36°00' W 005°24'15811.2
2015-May-23 05:27N 35°48' W 008°38'1313.7
2015-May-23 04:30N 35°47' W 008°54'4413.3
2015-May-23 01:11N 35°49' W 009°48'8913.0
2015-May-22 18:22N 36°02' W 011°37'1012.6
2015-May-22 17:33N 36°05' W 011°49'1111.2
2015-May-22 16:32N 36°08' W 012°03'1111.1
2015-May-22 15:32N 36°10' W 012°16'55611.8
2015-May-20 16:33N 37°25' W 023°44'1414.2
2015-May-20 15:33N 37°25' W 024°02'1413.9
2015-May-20 14:33N 37°26' W 024°19'1413.8
2015-May-20 13:33N 37°26' W 024°37'1414.0
2015-May-20 12:33N 37°25' W 024°54'1414.2
2015-May-20 11:33N 37°25' W 025°12'1514.7
2015-May-20 10:33N 37°24' W 025°31'1414.5
2015-May-20 09:34N 37°24' W 025°49'8 8.3
2015-May-20 08:34N 37°24' W 025°59'1110.8
2015-May-20 07:33N 37°25' W 026°13'1413.9
2015-May-20 06:33N 37°25' W 026°30'1414.1
2015-May-20 05:33N 37°26' W 026°48'1414.0
2015-May-20 04:32N 37°26' W 027°06'2014.2
2015-May-20 03:10N 37°27' W 027°30'913.9
2015-May-20 02:31N 37°27' W 027°42'1313.6
2015-May-20 01:33N 37°27' W 027°58'1313.5
2015-May-20 00:33N 37°26' W 028°15'1313.4
2015-May-19 23:33N 37°26' W 028°32'1413.8
2015-May-19 22:33N 37°26' W 028°49'1313.4
2015-May-19 21:33N 37°26' W 029°06'1413.8
2015-May-19 20:34N 37°26' W 029°24'1413.6
2015-May-19 19:33N 37°26' W 029°41'  
Track history (hours):
 
Tides and Currents Weather Stations Pressure Air Temp Water Temp Dewpoint Dewpoint Depression Visibility Wind Speed Wind Dir Waves Ship Positions

Tracer

Last reported at 2015-May-27 16:33 UTC. Time now 2015-May-27 21:50 UTC.
Position N 35°55' E 014°33'.

Length 101 m; beam 20 m.

Type: Cargo ship. MMSI: 245949000.

Date/timePositionNaut miles runAvg speedWind from/ knotsBaromVisibWave heightAir tempDewpointWater temp
2015-May-27 16:33N 35°55' E 014°33'9 9.0
2015-May-27 15:32N 36°04' E 014°38'8 8.5
2015-May-27 14:33N 36°10' E 014°31'1010.3
2015-May-27 13:33N 36°09' E 014°18'1010.2
2015-May-27 12:33N 36°12' E 014°07'1010.4
2015-May-27 11:33N 36°17' E 013°55'1110.7
2015-May-27 10:33N 36°22' E 013°43'  
2015-May-24 07:33N 36°01' W 005°14'9 8.5
2015-May-24 06:33N 36°07' W 005°22'0 0.1
2015-May-24 03:32N 36°07' W 005°21'0 0.1
2015-May-24 01:32N 36°07' W 005°21'0 0.0
2015-May-24 00:32N 36°07' W 005°21'0 0.1
2015-May-23 23:14N 36°07' W 005°21'7 1.9
2015-May-23 19:33N 36°00' W 005°24'15811.2
2015-May-23 05:27N 35°48' W 008°38'1313.7
2015-May-23 04:30N 35°47' W 008°54'4413.3
2015-May-23 01:11N 35°49' W 009°48'8913.0
2015-May-22 18:22N 36°02' W 011°37'1012.6
2015-May-22 17:33N 36°05' W 011°49'1111.2
2015-May-22 16:32N 36°08' W 012°03'1111.1
2015-May-22 15:32N 36°10' W 012°16'55611.8
2015-May-20 16:33N 37°25' W 023°44'1414.2
2015-May-20 15:33N 37°25' W 024°02'1413.9
2015-May-20 14:33N 37°26' W 024°19'1413.8
2015-May-20 13:33N 37°26' W 024°37'1414.0
2015-May-20 12:33N 37°25' W 024°54'1414.2
2015-May-20 11:33N 37°25' W 025°12'1514.7
2015-May-20 10:33N 37°24' W 025°31'1414.5
2015-May-20 09:34N 37°24' W 025°49'8 8.3
2015-May-20 08:34N 37°24' W 025°59'1110.8
2015-May-20 07:33N 37°25' W 026°13'1413.9
2015-May-20 06:33N 37°25' W 026°30'1414.1
2015-May-20 05:33N 37°26' W 026°48'1414.0
2015-May-20 04:32N 37°26' W 027°06'2014.2
2015-May-20 03:10N 37°27' W 027°30'913.9
2015-May-20 02:31N 37°27' W 027°42'1313.6
2015-May-20 01:33N 37°27' W 027°58'1313.5
2015-May-20 00:33N 37°26' W 028°15'1313.4
2015-May-19 23:33N 37°26' W 028°32'1413.8
2015-May-19 22:33N 37°26' W 028°49'1313.4
2015-May-19 21:33N 37°26' W 029°06'1413.8
2015-May-19 20:34N 37°26' W 029°24'1413.6
2015-May-19 19:33N 37°26' W 029°41'  

Dump ship's entire track history